createdAt,value
2023-03-21T00:02:12.797Z,5.87
2023-03-21T00:04:50.865Z,5.80
2023-03-21T00:07:18.637Z,5.73
2023-03-21T00:09:45.832Z,5.81
2023-03-21T00:12:14.244Z,5.76
2023-03-21T00:14:41.492Z,5.68
2023-03-21T00:17:10.824Z,5.66
2023-03-21T00:19:38.525Z,5.60
2023-03-21T00:22:08.553Z,5.59
2023-03-21T00:24:37.033Z,5.62
2023-03-21T00:29:52.261Z,5.59
2023-03-21T00:32:20.930Z,5.58
2023-03-21T00:35:01.487Z,5.59
2023-03-21T00:37:37.091Z,5.54
2023-03-21T00:40:22.925Z,5.50
2023-03-21T00:42:52.739Z,5.43
2023-03-21T00:45:21.973Z,5.47
2023-03-21T00:47:49.236Z,5.42
2023-03-21T00:50:16.697Z,5.43
2023-03-21T00:52:44.419Z,5.42
2023-03-21T00:55:16.485Z,5.44
2023-03-21T00:57:49.946Z,5.49
2023-03-21T01:00:19.373Z,5.51
2023-03-21T01:03:04.415Z,5.48
2023-03-21T01:05:59.810Z,5.63
2023-03-21T01:08:35.210Z,5.64
2023-03-21T01:11:13.373Z,5.49
2023-03-21T01:13:44.184Z,5.38
2023-03-21T01:16:24.000Z,5.34
2023-03-21T01:18:51.305Z,5.28
2023-03-21T01:21:18.915Z,5.14
2023-03-21T01:23:46.281Z,5.19
2023-03-21T01:26:14.548Z,5.19
2023-03-21T01:28:43.306Z,5.21
2023-03-21T01:31:13.448Z,5.24
2023-03-21T01:33:41.385Z,5.20
2023-03-21T01:36:14.535Z,5.24
2023-03-21T01:38:43.066Z,5.18
2023-03-21T01:41:43.075Z,5.12
2023-03-21T01:44:20.088Z,5.10
2023-03-21T01:47:11.483Z,5.02
2023-03-21T01:49:46.254Z,4.99
2023-03-21T01:52:36.624Z,4.91
2023-03-21T01:55:12.464Z,4.84
2023-03-21T01:58:06.340Z,4.88
2023-03-21T02:00:53.961Z,4.78
2023-03-21T02:03:50.081Z,4.79
2023-03-21T02:06:46.772Z,4.79
2023-03-21T02:09:33.462Z,4.72
2023-03-21T02:12:02.116Z,4.65
2023-03-21T02:14:34.491Z,4.66
2023-03-21T02:17:27.250Z,4.67
2023-03-21T02:20:27.107Z,4.67
2023-03-21T02:23:44.189Z,4.82
2023-03-21T02:26:42.904Z,4.95
2023-03-21T02:29:37.846Z,5.05
2023-03-21T02:32:41.180Z,5.07
2023-03-21T02:35:28.478Z,5.04
2023-03-21T02:38:18.204Z,4.94
2023-03-21T02:40:45.386Z,4.94
2023-03-21T02:43:23.445Z,4.94
2023-03-21T02:45:57.987Z,4.93
2023-03-21T02:48:49.768Z,4.82
2023-03-21T02:51:22.779Z,4.74
2023-03-21T02:54:21.974Z,4.76
2023-03-21T02:56:45.572Z,4.75
2023-03-21T02:59:15.720Z,4.71
2023-03-21T03:01:43.512Z,4.70
2023-03-21T03:04:28.605Z,4.67
2023-03-21T03:06:58.755Z,4.65
2023-03-21T03:09:43.152Z,4.74
2023-03-21T03:12:31.628Z,4.70
2023-03-21T03:15:17.816Z,4.66
2023-03-21T03:18:11.942Z,4.62
2023-03-21T03:21:00.774Z,4.51
2023-03-21T03:24:12.283Z,4.42
2023-03-21T03:26:46.883Z,4.33
2023-03-21T03:29:17.780Z,4.28
2023-03-21T03:32:27.127Z,4.26
2023-03-21T03:34:56.346Z,4.26
2023-03-21T03:37:32.334Z,4.26
2023-03-21T03:40:10.875Z,4.29
2023-03-21T03:42:52.395Z,4.39
2023-03-21T03:45:35.366Z,4.56
2023-03-21T03:48:15.611Z,4.60
2023-03-21T03:51:01.359Z,4.55
2023-03-21T03:53:46.253Z,4.48
2023-03-21T03:56:14.082Z,4.40
2023-03-21T03:58:45.580Z,4.50
2023-03-21T04:01:15.420Z,4.52
2023-03-21T04:03:50.735Z,4.59
2023-03-21T04:06:22.027Z,4.72
2023-03-21T04:08:51.397Z,4.77
2023-03-21T04:11:19.626Z,4.80
2023-03-21T04:13:52.010Z,4.76
2023-03-21T04:16:23.381Z,4.70
2023-03-21T04:18:51.036Z,4.67
2023-03-21T04:21:19.925Z,4.66
2023-03-21T04:23:47.200Z,4.63
2023-03-21T04:26:14.495Z,4.62
2023-03-21T04:28:51.489Z,4.60
2023-03-21T04:31:42.695Z,4.60
2023-03-21T04:34:12.954Z,4.55
2023-03-21T04:36:46.225Z,4.58
2023-03-21T04:39:14.943Z,4.61
2023-03-21T04:41:46.249Z,4.61
2023-03-21T04:44:15.719Z,4.57
2023-03-21T04:46:43.330Z,4.56
2023-03-21T04:49:11.639Z,4.49
2023-03-21T04:51:39.307Z,4.53
2023-03-21T04:56:38.099Z,4.56
2023-03-21T04:59:14.095Z,4.55
2023-03-21T05:01:43.520Z,4.59
2023-03-21T05:04:12.936Z,4.56
2023-03-21T05:06:42.303Z,4.55
2023-03-21T05:09:09.799Z,4.57
2023-03-21T05:11:39.236Z,4.57
2023-03-21T05:18:11.410Z,4.56
2023-03-21T05:20:54.118Z,4.50
2023-03-21T05:23:23.052Z,4.38
2023-03-21T05:25:51.219Z,4.42
2023-03-21T05:28:36.703Z,4.41
2023-03-21T05:31:04.582Z,4.38
2023-03-21T05:33:32.424Z,4.59
2023-03-21T05:35:59.627Z,4.69
2023-03-21T05:38:31.099Z,4.70
2023-03-21T05:40:59.257Z,4.70
2023-03-21T05:43:26.710Z,4.75
2023-03-21T05:45:53.917Z,4.75
2023-03-21T05:48:21.456Z,4.79
2023-03-21T05:51:21.174Z,4.82
2023-03-21T05:53:48.866Z,4.90
2023-03-21T05:56:16.940Z,4.94
2023-03-21T05:58:49.876Z,5.03
2023-03-21T06:01:17.901Z,5.03
2023-03-21T06:03:53.345Z,5.09
2023-03-21T06:06:25.164Z,5.17
2023-03-21T06:08:55.275Z,5.25
2023-03-21T06:11:27.238Z,5.38
2023-03-21T06:14:17.974Z,5.48
2023-03-21T06:16:48.878Z,5.57
2023-03-21T06:19:16.538Z,5.62
2023-03-21T06:21:55.937Z,5.80
2023-03-21T06:24:23.067Z,5.86
2023-03-21T06:26:50.292Z,6.00
2023-03-21T06:29:17.676Z,6.13
2023-03-21T06:31:49.037Z,6.24
2023-03-21T06:34:16.738Z,6.34
2023-03-21T06:36:46.693Z,6.35
2023-03-21T06:39:16.118Z,6.51
2023-03-21T06:41:44.398Z,6.57
2023-03-21T06:44:11.488Z,6.62
2023-03-21T06:46:48.221Z,6.79
2023-03-21T06:49:19.630Z,6.93
2023-03-21T06:51:46.924Z,7.13
2023-03-21T06:54:18.905Z,7.20
2023-03-21T06:56:56.615Z,7.26
2023-03-21T06:59:30.313Z,7.38
2023-03-21T07:02:03.739Z,7.51
2023-03-21T07:04:33.340Z,7.61
2023-03-21T07:07:00.504Z,7.73
2023-03-21T07:09:28.343Z,7.83
2023-03-21T07:11:59.919Z,7.96
2023-03-21T07:14:37.564Z,8.09
2023-03-21T07:17:04.797Z,8.28
2023-03-21T07:19:31.942Z,8.42
2023-03-21T07:22:01.379Z,8.52
2023-03-21T07:24:29.201Z,8.58
2023-03-21T07:26:56.370Z,8.71
2023-03-21T07:29:23.450Z,8.93
2023-03-21T07:31:50.664Z,8.96
2023-03-21T07:34:18.874Z,9.03
2023-03-21T07:36:46.108Z,9.25
2023-03-21T07:39:13.307Z,9.42
2023-03-21T07:41:40.521Z,9.40
2023-03-21T07:44:18.293Z,9.49
2023-03-21T07:46:46.201Z,9.69
2023-03-21T07:49:13.280Z,9.90
2023-03-21T07:51:40.484Z,10.03
2023-03-21T07:54:07.741Z,10.16
2023-03-21T07:56:35.043Z,10.26
2023-03-21T07:59:02.188Z,10.40
2023-03-21T08:01:29.293Z,10.45
2023-03-21T08:03:56.437Z,10.31
2023-03-21T08:06:28.079Z,10.40
2023-03-21T08:08:55.398Z,10.64
2023-03-21T08:11:23.660Z,10.75
2023-03-21T08:13:51.572Z,10.90
2023-03-21T08:16:18.855Z,11.05
2023-03-21T08:18:46.109Z,11.30
2023-03-21T08:21:13.223Z,11.48
2023-03-21T08:23:40.396Z,11.57
2023-03-21T08:26:07.786Z,11.64
2023-03-21T08:28:36.600Z,11.70
2023-03-21T08:31:13.926Z,11.88
2023-03-21T08:33:41.196Z,12.15
2023-03-21T08:36:09.240Z,12.17
2023-03-21T08:38:36.917Z,12.33
2023-03-21T08:41:04.278Z,12.29
2023-03-21T08:43:31.396Z,12.48
2023-03-21T08:46:04.737Z,12.68
2023-03-21T08:48:31.891Z,12.81
2023-03-21T08:51:01.892Z,12.92
2023-03-21T08:53:29.381Z,12.95
2023-03-21T08:55:56.666Z,13.16
2023-03-21T08:58:23.884Z,13.22
2023-03-21T09:00:52.054Z,13.31
2023-03-21T09:03:20.082Z,13.44
2023-03-21T09:05:47.315Z,13.36
2023-03-21T09:08:14.421Z,13.54
2023-03-21T09:10:41.509Z,13.82
2023-03-21T09:13:08.907Z,13.83
2023-03-21T09:15:36.337Z,14.09
2023-03-21T09:18:13.038Z,14.16
2023-03-21T09:20:43.077Z,14.22
2023-03-21T09:23:11.439Z,14.39
2023-03-21T09:25:39.090Z,14.51
2023-03-21T09:28:06.840Z,14.62
2023-03-21T09:30:36.599Z,14.75
2023-03-21T09:33:13.259Z,14.96
2023-03-21T09:35:41.629Z,14.98
2023-03-21T09:38:08.987Z,15.10
2023-03-21T09:40:56.498Z,15.17
2023-03-21T09:43:34.525Z,15.16
2023-03-21T09:46:34.122Z,15.31
2023-03-21T09:49:09.861Z,15.53
2023-03-21T09:51:42.157Z,15.59
2023-03-21T09:54:37.789Z,15.63
2023-03-21T09:57:34.151Z,15.91
2023-03-21T10:00:09.898Z,15.96
2023-03-21T10:02:47.344Z,15.93
2023-03-21T10:05:31.889Z,15.86
2023-03-21T10:08:05.428Z,16.17
2023-03-21T10:10:34.929Z,16.21
2023-03-21T10:13:02.025Z,16.41
2023-03-21T10:15:29.199Z,16.42
2023-03-21T10:18:06.212Z,16.69
2023-03-21T10:20:36.189Z,16.73
2023-03-21T10:23:07.200Z,16.94
2023-03-21T10:25:41.284Z,16.91
2023-03-21T10:28:16.826Z,16.85
2023-03-21T10:30:56.693Z,17.17
2023-03-21T10:33:32.584Z,17.27
2023-03-21T10:36:11.720Z,17.40
2023-03-21T10:38:45.324Z,17.49
2023-03-21T10:41:12.468Z,17.64
2023-03-21T10:43:41.017Z,17.54
2023-03-21T10:46:12.422Z,17.84
2023-03-21T10:48:46.292Z,17.93
2023-03-21T10:51:20.898Z,18.21
2023-03-21T10:53:55.722Z,18.07
2023-03-21T10:56:29.374Z,17.65
2023-03-21T10:58:59.985Z,17.43
2023-03-21T11:01:50.380Z,17.84
2023-03-21T11:04:22.068Z,17.96
2023-03-21T11:07:01.641Z,18.13
2023-03-21T11:09:50.078Z,18.04
2023-03-21T11:12:40.656Z,18.17
2023-03-21T11:15:31.497Z,18.28
2023-03-21T11:18:00.587Z,18.42
2023-03-21T11:20:31.342Z,18.23
2023-03-21T11:22:58.462Z,18.30
2023-03-21T11:25:36.047Z,18.05
2023-03-21T11:28:12.385Z,18.22
2023-03-21T11:30:50.041Z,18.32
2023-03-21T11:33:19.059Z,18.27
2023-03-21T11:36:02.206Z,18.28
2023-03-21T11:38:36.013Z,18.62
2023-03-21T11:41:04.910Z,18.78
2023-03-21T11:43:36.116Z,19.09
2023-03-21T11:46:14.365Z,18.67
2023-03-21T11:48:48.784Z,18.78
2023-03-21T11:51:27.401Z,18.80
2023-03-21T11:54:03.211Z,18.93
2023-03-21T11:56:36.403Z,19.33
2023-03-21T11:59:31.956Z,18.45
2023-03-21T12:02:40.543Z,18.91
2023-03-21T12:05:20.115Z,19.31
2023-03-21T12:08:29.159Z,19.26
2023-03-21T12:11:05.364Z,19.33
2023-03-21T12:13:35.837Z,19.88
2023-03-21T12:16:09.121Z,19.89
2023-03-21T12:18:54.911Z,19.95
2023-03-21T12:21:50.720Z,19.89
2023-03-21T12:24:31.246Z,19.56
2023-03-21T12:27:24.789Z,19.72
2023-03-21T12:30:09.840Z,19.66
2023-03-21T12:33:00.313Z,19.73
2023-03-21T12:35:33.401Z,19.72
2023-03-21T12:38:15.905Z,19.69
2023-03-21T12:41:12.045Z,19.78
2023-03-21T12:44:20.259Z,19.94
2023-03-21T12:47:11.246Z,20.16
2023-03-21T12:49:49.856Z,20.25
2023-03-21T12:52:24.049Z,20.17
2023-03-21T12:54:58.673Z,20.55
2023-03-21T12:57:30.807Z,20.40
2023-03-21T13:00:09.858Z,20.65
2023-03-21T13:03:02.768Z,20.71
2023-03-21T13:05:41.047Z,21.01
2023-03-21T13:08:26.247Z,21.44
2023-03-21T13:10:55.643Z,21.24
2023-03-21T13:13:59.348Z,20.55
2023-03-21T13:16:40.752Z,20.48
2023-03-21T13:19:24.539Z,20.82
2023-03-21T13:22:05.680Z,20.86
2023-03-21T13:24:32.802Z,21.01
2023-03-21T13:27:16.412Z,21.14
2023-03-21T13:29:50.439Z,21.16
2023-03-21T13:32:30.801Z,21.28
2023-03-21T13:35:01.355Z,21.24
2023-03-21T13:37:33.688Z,21.41
2023-03-21T13:40:10.842Z,21.46
2023-03-21T13:42:45.554Z,21.40
2023-03-21T13:45:33.954Z,21.67
2023-03-21T13:48:06.343Z,21.99
2023-03-21T13:50:49.597Z,21.54
2023-03-21T13:53:16.670Z,21.79
2023-03-21T13:55:46.565Z,21.71
2023-03-21T13:58:33.307Z,21.76
2023-03-21T14:01:23.515Z,21.51
2023-03-21T14:04:15.508Z,21.77
2023-03-21T14:06:55.166Z,21.61
2023-03-21T14:09:32.414Z,21.39
2023-03-21T14:12:07.432Z,21.98
2023-03-21T14:14:40.272Z,21.87
2023-03-21T14:17:34.368Z,21.84
2023-03-21T14:20:14.329Z,21.51
2023-03-21T14:22:41.772Z,21.72
2023-03-21T14:25:14.626Z,21.93
2023-03-21T14:27:52.577Z,21.95
2023-03-21T14:30:30.222Z,22.01
2023-03-21T14:32:59.659Z,21.92
2023-03-21T14:35:34.006Z,22.92
2023-03-21T14:38:04.660Z,23.47
2023-03-21T14:40:31.797Z,24.40
2023-03-21T14:43:07.300Z,24.89
2023-03-21T14:45:37.143Z,25.18
2023-03-21T14:48:13.541Z,26.10
2023-03-21T14:50:55.494Z,26.81
2023-03-21T14:53:32.025Z,26.80
2023-03-21T14:56:23.582Z,27.50
2023-03-21T14:58:52.955Z,27.35
2023-03-21T15:01:32.506Z,27.40
2023-03-21T15:04:01.580Z,27.85
2023-03-21T15:06:28.673Z,28.16
2023-03-21T15:09:01.448Z,27.48
2023-03-21T15:11:38.834Z,26.59
2023-03-21T15:14:08.790Z,27.07
2023-03-21T15:16:36.850Z,27.51
2023-03-21T15:19:05.251Z,28.07
2023-03-21T15:21:37.903Z,27.62
2023-03-21T15:24:13.785Z,26.85
2023-03-21T15:26:45.436Z,26.02
2023-03-21T15:29:14.847Z,25.25
2023-03-21T15:31:42.492Z,24.53
2023-03-21T15:34:32.520Z,24.20
2023-03-21T15:37:06.912Z,24.15
2023-03-21T15:39:37.123Z,23.37
2023-03-21T15:42:22.336Z,22.63
2023-03-21T15:44:53.207Z,22.18
2023-03-21T15:47:49.864Z,21.82
2023-03-21T15:50:29.406Z,21.18
2023-03-21T15:53:01.150Z,20.75
2023-03-21T15:55:36.167Z,20.77
2023-03-21T15:58:13.185Z,20.49
2023-03-21T16:00:43.901Z,20.29
2023-03-21T16:03:19.093Z,20.16
2023-03-21T16:06:05.483Z,19.76
2023-03-21T16:08:35.792Z,19.39
2023-03-21T16:11:16.513Z,19.10
2023-03-21T16:13:43.834Z,19.10
2023-03-21T16:16:17.059Z,18.84
2023-03-21T16:18:44.324Z,18.76
2023-03-21T16:21:17.003Z,18.68
2023-03-21T16:23:44.720Z,18.44
2023-03-21T16:26:17.464Z,18.30
2023-03-21T16:28:46.158Z,18.27
2023-03-21T16:31:16.423Z,17.97
2023-03-21T16:33:45.747Z,17.87
2023-03-21T16:36:30.961Z,17.70
2023-03-21T16:38:58.839Z,17.46
2023-03-21T16:41:27.263Z,17.25
2023-03-21T16:43:54.831Z,17.15
2023-03-21T16:46:26.470Z,17.02
2023-03-21T16:48:56.293Z,16.91
2023-03-21T16:51:31.961Z,16.72
2023-03-21T16:53:59.924Z,16.50
2023-03-21T16:56:31.061Z,16.50
2023-03-21T16:58:58.343Z,16.30
2023-03-21T17:01:29.954Z,16.18
2023-03-21T17:04:00.504Z,16.05
2023-03-21T17:06:30.191Z,15.91
2023-03-21T17:08:58.832Z,15.81
2023-03-21T17:11:31.397Z,15.69
2023-03-21T17:13:58.525Z,15.58
2023-03-21T17:16:27.656Z,15.43
2023-03-21T17:18:55.597Z,15.35
2023-03-21T17:21:28.354Z,15.26
2023-03-21T17:23:56.179Z,15.14
2023-03-21T17:26:28.686Z,15.07
2023-03-21T17:28:56.919Z,14.96
2023-03-21T17:31:26.503Z,14.86
2023-03-21T17:33:53.655Z,14.76
2023-03-21T17:36:31.966Z,14.66
2023-03-21T17:39:00.016Z,14.55
2023-03-21T17:41:27.824Z,14.46
2023-03-21T17:43:55.884Z,14.34
2023-03-21T17:46:27.825Z,14.23
2023-03-21T17:48:56.724Z,14.17
2023-03-21T17:51:26.154Z,14.12
2023-03-21T17:53:53.336Z,14.10
2023-03-21T17:56:26.111Z,14.01
2023-03-21T17:59:01.856Z,13.97
2023-03-21T18:01:31.785Z,13.94
2023-03-21T18:04:02.102Z,13.87
2023-03-21T18:06:29.418Z,13.82
2023-03-21T18:08:56.558Z,13.77
2023-03-21T18:11:24.520Z,13.72
2023-03-21T18:13:59.426Z,13.59
2023-03-21T18:16:33.956Z,13.51
2023-03-21T18:19:01.063Z,13.43
2023-03-21T18:21:32.183Z,13.39
2023-03-21T18:24:00.220Z,13.33
2023-03-21T18:26:27.425Z,13.29
2023-03-21T18:29:47.380Z,13.23
2023-03-21T18:31:43.854Z,13.17
2023-03-21T18:34:14.226Z,13.06
2023-03-21T18:36:42.755Z,12.93
2023-03-21T18:39:10.033Z,12.85
2023-03-21T18:41:37.116Z,12.81
2023-03-21T18:44:13.557Z,12.73
2023-03-21T18:46:47.229Z,12.63
2023-03-21T18:49:58.940Z,12.53
2023-03-21T18:52:02.885Z,12.41
2023-03-21T18:54:30.228Z,12.37
2023-03-21T18:59:45.057Z,12.34
2023-03-21T19:02:14.703Z,12.27
2023-03-21T19:04:42.821Z,12.25
2023-03-21T19:07:10.250Z,12.20
2023-03-21T19:10:13.892Z,12.14
2023-03-21T19:12:26.226Z,12.06
2023-03-21T19:14:54.233Z,12.04
2023-03-21T19:20:11.919Z,12.04
2023-03-21T19:22:39.233Z,11.98
2023-03-21T19:25:07.928Z,11.95
2023-03-21T19:27:36.134Z,11.91
2023-03-21T19:30:14.429Z,11.84
2023-03-21T19:32:43.568Z,11.78
2023-03-21T19:35:11.138Z,11.73
2023-03-21T19:37:38.220Z,11.65
2023-03-21T19:40:07.035Z,11.64
2023-03-21T19:42:36.242Z,11.60
2023-03-21T19:45:06.836Z,11.56
2023-03-21T19:47:33.943Z,11.54
2023-03-21T19:52:48.132Z,11.55
2023-03-21T19:55:15.389Z,11.54
2023-03-21T19:57:42.563Z,11.52
2023-03-21T20:00:11.421Z,11.45
2023-03-21T20:02:39.354Z,11.38
2023-03-21T20:05:07.056Z,11.32
2023-03-21T20:07:34.304Z,11.28
2023-03-21T20:10:01.454Z,11.29
2023-03-21T20:12:28.675Z,11.28
2023-03-21T20:15:09.574Z,11.25
2023-03-21T20:17:43.244Z,11.23
2023-03-21T20:20:14.453Z,11.21
2023-03-21T20:23:05.670Z,11.18
2023-03-21T20:25:31.157Z,11.18
2023-03-21T20:28:14.757Z,11.19
2023-03-21T20:31:19.494Z,11.21
2023-03-21T20:33:48.342Z,11.18
2023-03-21T20:36:39.460Z,11.17
2023-03-21T20:39:02.688Z,11.16
2023-03-21T20:41:30.290Z,11.16
2023-03-21T20:44:39.533Z,11.17
2023-03-21T20:46:48.055Z,11.17
2023-03-21T20:49:15.477Z,11.06
2023-03-21T20:54:30.364Z,11.07
2023-03-21T20:56:57.461Z,11.07
2023-03-21T20:59:27.579Z,11.02
2023-03-21T21:01:57.183Z,10.97
2023-03-21T21:04:43.142Z,10.88
2023-03-21T21:07:15.740Z,10.80
2023-03-21T21:09:46.264Z,10.71
2023-03-21T21:12:15.081Z,10.66
2023-03-21T21:14:43.573Z,10.58
2023-03-21T21:17:27.680Z,10.54
2023-03-21T21:19:57.942Z,10.53
2023-03-21T21:22:25.081Z,10.46
2023-03-21T21:24:52.335Z,10.39
2023-03-21T21:27:19.993Z,10.36
2023-03-21T21:29:49.832Z,10.39
2023-03-21T21:32:18.673Z,10.26
2023-03-21T21:34:45.970Z,10.08
2023-03-21T21:37:13.123Z,9.97
2023-03-21T21:39:41.922Z,9.94
2023-03-21T21:42:09.062Z,9.91
2023-03-21T21:44:37.301Z,9.90
2023-03-21T21:47:08.457Z,9.87
2023-03-21T21:49:36.083Z,9.85
2023-03-21T21:52:04.021Z,9.84
2023-03-21T21:54:33.986Z,9.83
2023-03-21T21:57:01.174Z,9.76
2023-03-21T21:59:28.421Z,9.69
2023-03-21T22:01:56.650Z,9.65
2023-03-21T22:04:27.628Z,9.55
2023-03-21T22:06:56.218Z,9.43
2023-03-21T22:09:23.582Z,9.29
2023-03-21T22:11:50.878Z,9.16
2023-03-21T22:14:17.992Z,9.11
2023-03-21T22:16:46.746Z,8.99
2023-03-21T22:19:13.960Z,8.98
2023-03-21T22:21:41.166Z,8.98
2023-03-21T22:24:08.333Z,8.95
2023-03-21T22:26:35.470Z,9.01
2023-03-21T22:29:02.643Z,9.01
2023-03-21T22:31:29.810Z,8.98
2023-03-21T22:33:56.992Z,9.03
2023-03-21T22:36:24.933Z,9.00
2023-03-21T22:38:52.038Z,8.96
2023-03-21T22:41:19.188Z,8.99
2023-03-21T22:43:46.335Z,9.01
2023-03-21T22:46:13.526Z,8.98
2023-03-21T22:48:41.465Z,9.01
2023-03-21T22:51:08.880Z,9.12
2023-03-21T22:53:36.382Z,9.13
2023-03-21T22:56:03.583Z,9.22
2023-03-21T22:58:30.699Z,9.30
2023-03-21T23:01:01.945Z,9.23
2023-03-21T23:03:29.125Z,9.11
2023-03-21T23:06:01.129Z,9.14
2023-03-21T23:08:28.722Z,9.18
2023-03-21T23:10:56.324Z,9.13
2023-03-21T23:13:23.745Z,9.15
2023-03-21T23:15:51.016Z,9.11
2023-03-21T23:18:18.265Z,9.07
2023-03-21T23:20:49.217Z,9.03
2023-03-21T23:23:16.656Z,9.02
2023-03-21T23:25:43.977Z,8.99
2023-03-21T23:28:11.134Z,8.93
2023-03-21T23:30:39.089Z,8.94
2023-03-21T23:33:06.455Z,8.90
2023-03-21T23:35:38.312Z,8.89
2023-03-21T23:38:05.931Z,8.83
2023-03-21T23:40:32.999Z,8.87
2023-03-21T23:43:00.177Z,8.83
2023-03-21T23:45:27.275Z,8.77
2023-03-21T23:47:54.452Z,8.71
2023-03-21T23:50:21.616Z,8.69
2023-03-21T23:52:48.754Z,8.63
2023-03-21T23:55:15.950Z,8.65
2023-03-21T23:57:43.769Z,8.63
